Nearby METAR Reports

 

KSYN - Stanton, Minnesota, USA
Distance from station: NW 20mi, 33km
Updated: Fri, 26-Feb-2021 4:15am CST
Clear
Clear
 Wind from S
Wind: S 14 mph , 22 km/h
Temperature: 25°F , -4°C
Wind Chill: 13°F , -11°C
Dew Point: 21°F , -6°C
Humidity: 86%
Barometer: 30.00 inHg , 1015.9 hPa
Clouds: Clear
Visibility: 10 miles , 16 km
2021/02/26 10:15 KSYN 261015Z AUTO 18012KT 10SM CLR M04/M06 A3000 RMK AO2 T10411061
KTOB - Dodge Center, Minnesota, USA
Distance from station: SSW 21mi, 34km
Updated: Fri, 26-Feb-2021 4:15am CST
Clear
Clear
 Wind from S
Wind: S 15 mph , 24 km/h
Temperature: 23°F , -5°C
Wind Chill: 10°F , -12°C
Dew Point: 21°F , -6°C
Humidity: 93%
Barometer: 30.02 inHg , 1016.6 hPa
Clouds: Clear
Visibility: 10 miles , 16 km
2021/02/26 10:15 KTOB 261015Z AUTO 18013KT 10SM CLR M05/M06 A3002 RMK AO2
K9MN - St Mary Hospital, Minnesota, USA
Distance from station: SSE 22mi, 35km
Updated: Fri, 26-Feb-2021 4:15am CST
Clear
Clear
 Wind from SE
Wind: SE 6 mph , 9 km/h
Temperature: 23°F , -5°C
Wind Chill: 16°F , -9°C
Dew Point: 23°F , -5°C
Humidity: 100%
Barometer: 30.05 inHg , 1017.6 hPa
Clouds: Clear
Visibility: 10 miles , 16 km
2021/02/26 10:15 K9MN 261015Z AUTO 13005KT 10SM CLR M05/M05 A3005 RMK AO1 T10501051
 
KRGK - Red Wing, Minnesota, USA
Distance from station: NNE 22mi, 35km
Updated: Fri, 26-Feb-2021 4:15am CST
Clear
Clear
 Wind from ESE
Wind: ESE 7 mph , 11 km/h
Temperature: 25°F , -4°C
Wind Chill: 17°F , -8°C
Dew Point: 21°F , -6°C
Humidity: 86%
Barometer: 30.04 inHg , 1017.3 hPa
Clouds: Clear
Visibility: 10 miles , 16 km
2021/02/26 10:15 KRGK 261015Z AUTO 11006KT 10SM CLR M04/M06 A3004 RMK AO2
KRST - Rochester, Minnesota, USA
Distance from station: SSE 29mi, 47km
Updated: Fri, 26-Feb-2021 3:54am CST
Clear
Clear
 Wind from S
Wind: S 13 mph , 20 km/h
Temperature: 21°F , -6°C
Wind Chill: 8°F , -13°C
Dew Point: 18°F , -8°C
Humidity: 86%
Barometer: 30.05 inHg , 1017.6 hPa
Clouds: Clear
Visibility: 9 miles , 14 km
2021/02/26 09:54 KRST 260954Z AUTO 18011KT 9SM CLR M06/M08 A3005 RMK AO2 SLP195 I1001 T10611078
KOWA - Owatonna, Minnesota, USA
Distance from station: WSW 31mi, 50km
Updated: Fri, 26-Feb-2021 4:13am CST
Clear
Clear
 Wind from SSE
Wind: SSE 17 mph , 28 km/h
Temperature: 25°F , -4°C
Wind Chill: 12°F , -11°C
Dew Point: 21°F , -6°C
Humidity: 86%
Barometer: 30.00 inHg , 1015.9 hPa
Clouds: Clear
Visibility: 10 miles , 16 km
2021/02/26 10:13 KOWA 261013Z AUTO 16015KT 10SM CLR M04/M06 A3000 RMK AO2
 
KFBL - Faribault Muni, Minnesota, USA
Distance from station: W 32mi, 51km
Updated: Fri, 26-Feb-2021 4:15am CST
Clear
Clear
 Wind from SSE
Wind: SSE 12 mph , 19 km/h
Temperature: 25°F , -4°C
Wind Chill: 14°F , -10°C
Dew Point: 21°F , -6°C
Humidity: 86%
Barometer: 30.01 inHg , 1016.3 hPa
Clouds: Clear
Visibility: 10 miles , 16 km
2021/02/26 10:15 KFBL 261015Z AUTO 16010KT 10SM CLR M04/M06 A3001 RMK AO2
KSGS - South St Paul, Minnesota, USA
Distance from station: NNW 43mi, 69km
Updated: Fri, 26-Feb-2021 4:15am CST
Clear
Clear
 Wind from SSE
Wind: SSE 5 mph , 7 km/h
Temperature: 27°F , -3°C
Wind Chill: 21°F , -6°C
Dew Point: 23°F , -5°C
Humidity: 86%
Barometer: 30.00 inHg , 1015.9 hPa
Clouds: Clear
Visibility: 10 miles , 16 km
2021/02/26 10:15 KSGS 261015Z AUTO 16004KT 10SM CLR M03/M05 A3000 RMK AO2 T10351055
KAUM - Austin Muni, Minnesota, USA
Distance from station: SSW 46mi, 73km
Updated: Fri, 26-Feb-2021 4:15am CST
Clear
Clear
 Wind from S
Wind: S 6 mph , 9 km/h
Temperature: 23°F , -5°C
Wind Chill: 16°F , -9°C
Dew Point: 21°F , -6°C
Humidity: 93%
Barometer: 30.05 inHg , 1017.6 hPa
Clouds: Clear
Visibility: 10 miles , 16 km
2021/02/26 10:15 KAUM 261015Z AUTO 17005KT 10SM CLR M05/M06 A3005 RMK AO2
 
KACQ - Waseca, Minnesota, USA
Distance from station: WSW 46mi, 75km
Updated: Fri, 26-Feb-2021 4:15am CST
Clear
Clear
 Wind from S
Wind: S 17 mph , 28 km/h
Temperature: 28°F , -2°C
Wind Chill: 16°F , -9°C
Dew Point: 23°F , -5°C
Humidity: 80%
Barometer: 30.02 inHg , 1016.6 hPa
Clouds: Clear
Visibility: 10 miles , 16 km
2021/02/26 10:15 KACQ 261015Z AUTO 17015KT 10SM CLR M02/M05 A3002 RMK AO2
KSTP - St. Paul, Minnesota, USA
Distance from station: NNW 47mi, 76km
Updated: Fri, 26-Feb-2021 3:53am CST
Clear
Clear
 Wind from SSE
Wind: SSE 10 mph , 17 km/h
Temperature: 25°F , -4°C
Wind Chill: 15°F , -9°C
Dew Point: 21°F , -6°C
Humidity: 86%
Barometer: 30.02 inHg , 1016.6 hPa
Clouds: Clear
Visibility: 10 miles , 16 km
2021/02/26 09:53 KSTP 260953Z AUTO 16009KT 10SM CLR M04/M06 A3002 RMK AO2 SLP171 T10391061
KMSP - Minneapolis, Minnesota, USA
Distance from station: NW 49mi, 78km
Updated: Fri, 26-Feb-2021 3:53am CST
Clear
Clear
 Wind from S
Wind: S 12 mph , 19 km/h
Temperature: 28°F , -2°C
Wind Chill: 18°F , -8°C
Dew Point: 21°F , -6°C
Humidity: 74%
Barometer: 30.00 inHg , 1015.9 hPa
Clouds: Clear
Visibility: 10 miles , 16 km
2021/02/26 09:53 KMSP 260953Z 18010KT 10SM CLR M02/M06 A3000 RMK AO2 SLP166 T10171056